createdAt,value
2019-02-09T00:00:13.186Z,6.50
2019-02-09T00:02:43.669Z,6.50
2019-02-09T00:05:13.958Z,6.50
2019-02-09T00:07:43.972Z,6.50
2019-02-09T00:10:14.028Z,6.50
2019-02-09T00:12:44.547Z,6.50
2019-02-09T00:15:14.632Z,6.50
2019-02-09T00:17:44.975Z,6.50
2019-02-09T00:20:14.976Z,6.40
2019-02-09T00:22:45.020Z,6.40
2019-02-09T00:25:15.140Z,6.50
2019-02-09T00:27:45.171Z,6.40
2019-02-09T00:30:15.204Z,6.40
2019-02-09T00:32:45.182Z,6.40
2019-02-09T00:35:15.231Z,6.40
2019-02-09T00:37:45.197Z,6.40
2019-02-09T00:40:15.210Z,6.30
2019-02-09T00:42:45.310Z,6.30
2019-02-09T00:45:15.242Z,6.30
2019-02-09T00:47:45.360Z,6.30
2019-02-09T00:50:15.382Z,6.30
2019-02-09T00:52:45.683Z,6.30
2019-02-09T00:55:15.700Z,6.30
2019-02-09T00:57:45.764Z,6.20
2019-02-09T01:00:18.407Z,6.20
2019-02-09T01:02:48.722Z,6.20
2019-02-09T01:05:21.965Z,6.20
2019-02-09T01:07:52.537Z,6.10
2019-02-09T01:10:23.501Z,6.10
2019-02-09T01:12:53.654Z,6.10
2019-02-09T01:15:23.783Z,6.10
2019-02-09T01:17:53.819Z,6.00
2019-02-09T01:20:24.142Z,6.00
2019-02-09T01:22:54.375Z,6.00
2019-02-09T01:25:24.407Z,5.90
2019-02-09T01:27:54.644Z,5.90
2019-02-09T01:30:25.586Z,5.90
2019-02-09T01:32:55.783Z,5.90
2019-02-09T01:35:25.822Z,5.90
2019-02-09T01:37:56.798Z,5.90
2019-02-09T01:40:27.248Z,5.90
2019-02-09T01:42:57.124Z,5.80
2019-02-09T01:45:30.971Z,5.80
2019-02-09T01:48:01.248Z,5.80
2019-02-09T01:50:31.913Z,5.80
2019-02-09T01:53:02.009Z,5.80
2019-02-09T01:55:37.017Z,5.70
2019-02-09T01:58:07.170Z,5.70
2019-02-09T02:00:37.159Z,5.70
2019-02-09T02:03:08.402Z,5.70
2019-02-09T02:05:38.480Z,5.70
2019-02-09T02:08:08.582Z,5.70
2019-02-09T02:10:39.139Z,5.70
2019-02-09T02:13:09.804Z,5.70
2019-02-09T02:15:41.428Z,5.70
2019-02-09T02:18:11.416Z,5.60
2019-02-09T02:20:41.368Z,5.60
2019-02-09T02:23:11.222Z,5.60
2019-02-09T02:25:41.194Z,5.60
2019-02-09T02:28:11.316Z,5.60
2019-02-09T02:30:41.441Z,5.50
2019-02-09T02:33:11.642Z,5.50
2019-02-09T02:35:41.603Z,5.50
2019-02-09T02:38:11.545Z,5.50
2019-02-09T02:40:41.643Z,5.50
2019-02-09T02:43:11.724Z,5.40
2019-02-09T02:45:41.781Z,5.40
2019-02-09T02:48:12.867Z,5.40
2019-02-09T02:50:43.118Z,5.40
2019-02-09T02:53:13.101Z,5.40
2019-02-09T02:55:43.146Z,5.40
2019-02-09T02:58:13.257Z,5.40
2019-02-09T03:00:43.305Z,5.50
2019-02-09T03:03:13.271Z,5.50
2019-02-09T03:05:43.215Z,5.60
2019-02-09T03:08:13.225Z,5.60
2019-02-09T03:10:43.146Z,5.70
2019-02-09T03:13:13.188Z,5.80
2019-02-09T03:15:43.080Z,5.80
2019-02-09T03:18:13.018Z,5.80
2019-02-09T03:20:42.956Z,5.90
2019-02-09T03:23:12.999Z,5.90
2019-02-09T03:25:43.042Z,6.00
2019-02-09T03:28:12.957Z,6.00
2019-02-09T03:30:47.993Z,6.00
2019-02-09T03:33:14.330Z,6.10
2019-02-09T03:35:44.098Z,6.10
2019-02-09T03:38:19.608Z,6.10
2019-02-09T03:40:49.413Z,6.00
2019-02-09T03:43:19.471Z,6.00
2019-02-09T03:45:50.107Z,6.10
2019-02-09T03:48:20.099Z,6.10
2019-02-09T03:50:58.999Z,6.10
2019-02-09T03:53:31.113Z,6.00
2019-02-09T03:56:00.987Z,6.10
2019-02-09T03:58:31.124Z,6.10
2019-02-09T04:01:01.156Z,6.10
2019-02-09T04:03:31.228Z,6.10
2019-02-09T04:06:01.244Z,6.20
2019-02-09T04:08:31.381Z,6.20
2019-02-09T04:11:01.237Z,6.20
2019-02-09T04:13:31.212Z,6.30
2019-02-09T04:16:01.200Z,6.30
2019-02-09T04:18:31.328Z,6.30
2019-02-09T04:21:01.392Z,6.30
2019-02-09T04:23:31.489Z,6.30
2019-02-09T04:26:01.488Z,6.30
2019-02-09T04:28:31.581Z,6.30
2019-02-09T04:31:05.871Z,6.30
2019-02-09T04:33:33.515Z,6.30
2019-02-09T04:36:03.366Z,6.30
2019-02-09T04:38:33.375Z,6.30
2019-02-09T04:41:03.323Z,6.30
2019-02-09T04:43:33.572Z,6.30
2019-02-09T04:46:03.564Z,6.30
2019-02-09T04:48:33.870Z,6.40
2019-02-09T04:51:03.987Z,6.40
2019-02-09T04:53:33.943Z,6.40
2019-02-09T04:56:03.988Z,6.40
2019-02-09T04:58:34.041Z,6.50
2019-02-09T05:01:04.073Z,6.50
2019-02-09T05:03:34.298Z,6.50
2019-02-09T05:06:04.253Z,6.50
2019-02-09T05:08:35.455Z,6.60
2019-02-09T05:11:05.346Z,6.60
2019-02-09T05:13:35.412Z,6.60
2019-02-09T05:16:05.775Z,6.60
2019-02-09T05:18:35.806Z,6.60
2019-02-09T05:21:06.124Z,6.70
2019-02-09T05:23:36.106Z,6.70
2019-02-09T05:26:05.983Z,6.70
2019-02-09T05:28:36.185Z,6.70
2019-02-09T05:31:06.350Z,6.70
2019-02-09T05:33:36.453Z,6.70
2019-02-09T05:36:06.506Z,6.70
2019-02-09T05:38:36.973Z,6.70
2019-02-09T05:41:07.173Z,6.70
2019-02-09T05:43:37.110Z,6.70
2019-02-09T05:46:07.172Z,6.70
2019-02-09T05:48:37.379Z,6.70
2019-02-09T05:51:07.410Z,6.80
2019-02-09T05:53:37.399Z,6.80
2019-02-09T05:56:07.310Z,6.80
2019-02-09T05:58:37.659Z,6.80
2019-02-09T06:01:07.548Z,6.80
2019-02-09T06:03:37.789Z,6.80
2019-02-09T06:06:07.805Z,6.80
2019-02-09T06:08:37.850Z,6.80
2019-02-09T06:11:07.886Z,6.90
2019-02-09T06:13:37.958Z,6.90
2019-02-09T06:16:08.120Z,6.90
2019-02-09T06:18:38.249Z,6.90
2019-02-09T06:21:08.255Z,6.90
2019-02-09T06:23:38.571Z,6.90
2019-02-09T06:26:08.829Z,6.90
2019-02-09T06:28:39.126Z,6.90
2019-02-09T06:31:09.203Z,6.90
2019-02-09T06:33:39.088Z,6.90
2019-02-09T06:36:09.164Z,6.90
2019-02-09T06:38:39.394Z,7.00
2019-02-09T06:41:09.942Z,7.00
2019-02-09T06:43:40.422Z,7.00
2019-02-09T06:46:10.382Z,7.00
2019-02-09T06:48:40.420Z,7.00
2019-02-09T06:51:17.881Z,7.00
2019-02-09T06:53:48.218Z,7.00
2019-02-09T06:56:18.203Z,7.00
2019-02-09T06:58:48.136Z,7.00
2019-02-09T07:01:18.465Z,7.00
2019-02-09T07:03:48.480Z,7.00
2019-02-09T07:06:18.535Z,7.10
2019-02-09T07:08:48.546Z,7.10
2019-02-09T07:11:18.763Z,7.10
2019-02-09T07:13:48.721Z,7.10
2019-02-09T07:16:18.853Z,7.20
2019-02-09T07:18:48.838Z,7.20
2019-02-09T07:21:18.801Z,7.20
2019-02-09T07:23:48.813Z,7.30
2019-02-09T07:26:18.771Z,7.30
2019-02-09T07:28:48.954Z,7.30
2019-02-09T07:31:19.134Z,7.40
2019-02-09T07:33:49.128Z,7.40
2019-02-09T07:36:19.302Z,7.40
2019-02-09T07:38:50.603Z,7.40
2019-02-09T07:41:41.170Z,7.40
2019-02-09T07:44:23.804Z,7.50
2019-02-09T07:47:10.129Z,7.50
2019-02-09T07:50:00.092Z,7.50
2019-02-09T07:52:30.587Z,7.60
2019-02-09T07:55:00.543Z,7.60
2019-02-09T07:57:31.894Z,7.60
2019-02-09T08:00:02.986Z,7.70
2019-02-09T08:02:33.599Z,7.70
2019-02-09T08:05:05.735Z,7.80
2019-02-09T08:07:37.220Z,7.80
2019-02-09T08:10:09.180Z,7.90
2019-02-09T08:12:39.537Z,7.90
2019-02-09T08:15:14.373Z,7.90
2019-02-09T08:17:45.925Z,8.10
2019-02-09T08:20:16.583Z,8.10
2019-02-09T08:22:46.837Z,8.10
2019-02-09T08:25:18.934Z,8.10
2019-02-09T08:27:49.647Z,8.20
2019-02-09T08:30:22.275Z,8.20
2019-02-09T08:32:52.406Z,8.30
2019-02-09T08:35:22.656Z,8.30
2019-02-09T08:37:53.480Z,8.30
2019-02-09T08:40:25.663Z,8.40
2019-02-09T08:42:55.703Z,8.30
2019-02-09T08:45:25.970Z,8.40
2019-02-09T08:47:56.314Z,8.40
2019-02-09T08:50:31.907Z,8.40
2019-02-09T08:53:02.983Z,8.50
2019-02-09T08:55:32.910Z,8.50
2019-02-09T08:58:02.873Z,8.60
2019-02-09T09:00:33.319Z,8.60
2019-02-09T09:03:03.503Z,8.60
2019-02-09T09:05:33.636Z,8.60
2019-02-09T09:08:03.836Z,8.60
2019-02-09T09:10:33.800Z,8.60
2019-02-09T09:13:04.840Z,8.60
2019-02-09T09:15:43.192Z,8.60
2019-02-09T09:18:14.153Z,8.60
2019-02-09T09:20:47.134Z,8.60
2019-02-09T09:23:17.114Z,8.70
2019-02-09T09:25:47.070Z,8.80
2019-02-09T09:28:19.306Z,8.80
2019-02-09T09:30:49.441Z,8.90
2019-02-09T09:33:19.307Z,9.00
2019-02-09T09:35:49.246Z,9.10
2019-02-09T09:38:19.302Z,9.20
2019-02-09T09:40:49.581Z,9.20
2019-02-09T09:43:19.653Z,9.20
2019-02-09T09:45:49.854Z,9.30
2019-02-09T09:48:19.974Z,9.40
2019-02-09T09:50:49.831Z,9.50
2019-02-09T09:53:20.099Z,9.60
2019-02-09T09:55:50.049Z,9.60
2019-02-09T09:58:20.042Z,9.80
2019-02-09T10:00:52.155Z,9.80
2019-02-09T10:03:22.222Z,9.90
2019-02-09T10:05:52.964Z,10.00
2019-02-09T10:08:24.335Z,10.10
2019-02-09T10:10:54.483Z,10.30
2019-02-09T10:13:24.472Z,10.40
2019-02-09T10:15:54.543Z,10.50
2019-02-09T10:18:24.630Z,10.60
2019-02-09T10:20:54.573Z,10.60
2019-02-09T10:23:24.716Z,10.60
2019-02-09T10:25:54.858Z,10.60
2019-02-09T10:28:24.771Z,10.60
2019-02-09T10:30:54.860Z,10.70
2019-02-09T10:33:24.870Z,10.70
2019-02-09T10:35:54.850Z,10.80
2019-02-09T10:38:24.791Z,10.90
2019-02-09T10:40:54.774Z,11.00
2019-02-09T10:43:27.067Z,11.20
2019-02-09T10:45:58.035Z,11.40
2019-02-09T10:48:28.101Z,11.60
2019-02-09T10:50:57.893Z,11.80
2019-02-09T10:53:30.332Z,12.10
2019-02-09T10:56:00.474Z,12.30
2019-02-09T10:58:30.488Z,12.50
2019-02-09T11:01:06.786Z,12.70
2019-02-09T11:03:37.102Z,12.70
2019-02-09T11:06:09.890Z,12.70
2019-02-09T11:08:40.209Z,12.70
2019-02-09T11:11:12.022Z,12.70
2019-02-09T11:13:42.060Z,12.80
2019-02-09T11:16:11.999Z,12.90
2019-02-09T11:18:42.202Z,12.90
2019-02-09T11:21:12.239Z,12.90
2019-02-09T11:23:44.396Z,12.90
2019-02-09T11:26:14.397Z,12.90
2019-02-09T11:28:44.786Z,12.90
2019-02-09T11:31:15.073Z,13.20
2019-02-09T11:33:45.077Z,13.50
2019-02-09T11:36:16.038Z,13.80
2019-02-09T11:38:46.115Z,14.10
2019-02-09T11:41:16.161Z,14.30
2019-02-09T11:43:46.492Z,14.50
2019-02-09T11:46:16.532Z,14.70
2019-02-09T11:48:46.621Z,14.80
2019-02-09T11:51:16.673Z,14.80
2019-02-09T11:53:46.725Z,14.70
2019-02-09T11:56:16.697Z,14.60
2019-02-09T11:58:46.902Z,14.40
2019-02-09T12:01:16.971Z,14.20
2019-02-09T12:03:46.874Z,14.00
2019-02-09T12:06:16.770Z,13.90
2019-02-09T12:08:46.877Z,13.70
2019-02-09T12:11:17.387Z,13.50
2019-02-09T12:13:55.028Z,13.40
2019-02-09T12:16:19.144Z,13.20
2019-02-09T12:18:49.245Z,13.10
2019-02-09T12:21:19.256Z,13.00
2019-02-09T12:23:49.341Z,13.00
2019-02-09T12:26:19.547Z,12.90
2019-02-09T12:28:55.816Z,12.90
2019-02-09T12:31:26.164Z,12.80
2019-02-09T12:33:56.292Z,12.80
2019-02-09T12:36:26.366Z,12.80
2019-02-09T12:38:56.275Z,12.80
2019-02-09T12:41:26.702Z,12.80
2019-02-09T12:43:57.304Z,12.80
2019-02-09T12:46:27.629Z,12.80
2019-02-09T12:48:58.035Z,12.80
2019-02-09T12:51:28.005Z,12.80
2019-02-09T12:53:58.073Z,12.80
2019-02-09T12:56:28.613Z,12.80
2019-02-09T12:58:58.945Z,12.70
2019-02-09T13:01:29.143Z,12.70
2019-02-09T13:03:59.474Z,12.70
2019-02-09T13:06:30.231Z,12.70
2019-02-09T13:09:00.641Z,12.70
2019-02-09T13:11:31.842Z,12.70
2019-02-09T13:14:01.953Z,12.70
2019-02-09T13:16:32.734Z,12.70
2019-02-09T13:19:02.793Z,12.70
2019-02-09T13:21:33.240Z,12.70
2019-02-09T13:24:03.247Z,12.80
2019-02-09T13:26:33.915Z,12.80
2019-02-09T13:29:11.601Z,12.80
2019-02-09T13:31:42.632Z,12.80
2019-02-09T13:34:13.013Z,12.70
2019-02-09T13:36:43.386Z,12.70
2019-02-09T13:39:13.599Z,12.70
2019-02-09T13:41:43.928Z,12.50
2019-02-09T13:44:14.107Z,12.50
2019-02-09T13:46:55.271Z,12.50
2019-02-09T13:49:57.629Z,12.40
2019-02-09T13:52:32.400Z,12.40
2019-02-09T13:55:03.674Z,12.40
2019-02-09T13:57:33.735Z,12.30
2019-02-09T14:00:04.145Z,12.30
2019-02-09T14:02:34.528Z,12.20
2019-02-09T14:05:04.965Z,12.10
2019-02-09T14:07:35.772Z,12.10
2019-02-09T14:10:07.785Z,12.10
2019-02-09T14:12:42.412Z,12.10
2019-02-09T14:15:26.905Z,12.10
2019-02-09T14:18:00.226Z,12.10
2019-02-09T14:20:32.128Z,12.10
2019-02-09T14:23:03.498Z,12.20
2019-02-09T14:25:34.367Z,12.10
2019-02-09T14:28:06.002Z,12.10
2019-02-09T14:31:17.622Z,12.10
2019-02-09T14:33:54.790Z,12.00
2019-02-09T14:36:22.616Z,12.00
2019-02-09T14:39:00.466Z,11.90
2019-02-09T14:41:34.894Z,11.90
2019-02-09T14:44:05.073Z,11.90
2019-02-09T14:46:35.346Z,11.90
2019-02-09T14:49:05.805Z,11.90
2019-02-09T14:51:36.043Z,11.80
2019-02-09T14:54:06.076Z,11.80
2019-02-09T14:56:36.026Z,11.80
2019-02-09T14:59:06.972Z,11.80
2019-02-09T15:01:37.136Z,11.80
2019-02-09T15:04:42.670Z,11.80
2019-02-09T15:07:17.331Z,11.70
2019-02-09T15:09:54.790Z,11.70
2019-02-09T15:12:30.983Z,11.70
2019-02-09T15:15:02.681Z,11.70
2019-02-09T15:17:32.841Z,11.70
2019-02-09T15:20:02.917Z,11.70
2019-02-09T15:22:32.964Z,11.60
2019-02-09T15:25:03.305Z,11.60
2019-02-09T15:27:33.421Z,11.50
2019-02-09T15:30:03.651Z,11.40
2019-02-09T15:32:33.669Z,11.40
2019-02-09T15:35:03.689Z,11.30
2019-02-09T15:37:33.979Z,11.20
2019-02-09T15:40:04.579Z,11.20
2019-02-09T15:42:34.866Z,11.10
2019-02-09T15:45:06.161Z,11.00
2019-02-09T15:47:37.467Z,10.90
2019-02-09T15:50:07.998Z,10.90
2019-02-09T15:52:38.056Z,10.80
2019-02-09T15:55:10.136Z,10.70
2019-02-09T15:57:40.006Z,10.60
2019-02-09T16:00:18.254Z,10.60
2019-02-09T16:02:48.857Z,10.50
2019-02-09T16:05:19.229Z,10.40
2019-02-09T16:07:49.316Z,10.30
2019-02-09T16:10:21.032Z,10.30
2019-02-09T16:12:51.702Z,10.20
2019-02-09T16:15:24.169Z,10.10
2019-02-09T16:17:54.158Z,10.10
2019-02-09T16:20:24.977Z,10.10
2019-02-09T16:22:54.980Z,10.10
2019-02-09T16:25:25.140Z,10.10
2019-02-09T16:27:55.147Z,10.10
2019-02-09T16:30:25.764Z,10.10
2019-02-09T16:32:55.730Z,10.10
2019-02-09T16:35:25.813Z,10.20
2019-02-09T16:37:56.148Z,10.20
2019-02-09T16:40:27.723Z,10.20
2019-02-09T16:42:57.989Z,10.30
2019-02-09T16:45:32.560Z,10.30
2019-02-09T16:48:02.536Z,10.30
2019-02-09T16:50:32.668Z,10.30
2019-02-09T16:53:02.563Z,10.30
2019-02-09T16:55:32.783Z,10.20
2019-02-09T16:58:02.830Z,10.30
2019-02-09T17:00:35.066Z,10.20
2019-02-09T17:03:05.398Z,10.20
2019-02-09T17:05:35.385Z,10.20
2019-02-09T17:08:05.738Z,10.20
2019-02-09T17:10:36.882Z,10.10
2019-02-09T17:13:07.324Z,10.10
2019-02-09T17:15:38.042Z,10.10
2019-02-09T17:18:08.804Z,10.10
2019-02-09T17:20:39.194Z,10.10
2019-02-09T17:23:10.031Z,10.10
2019-02-09T17:25:40.028Z,10.10
2019-02-09T17:28:10.091Z,10.10
2019-02-09T17:30:45.883Z,10.00
2019-02-09T17:33:15.892Z,10.00
2019-02-09T17:35:46.296Z,9.90
2019-02-09T17:38:16.162Z,9.90
2019-02-09T17:40:47.403Z,9.80
2019-02-09T17:43:17.861Z,9.80
2019-02-09T17:46:07.682Z,9.70
2019-02-09T17:48:37.652Z,9.70
2019-02-09T17:51:07.963Z,9.70
2019-02-09T17:53:38.134Z,9.60
2019-02-09T17:56:09.584Z,9.60
2019-02-09T17:58:40.713Z,9.50
2019-02-09T18:01:13.659Z,9.50
2019-02-09T18:03:43.751Z,9.50
2019-02-09T18:06:16.963Z,9.40
2019-02-09T18:08:47.231Z,9.40
2019-02-09T18:11:17.036Z,9.40
2019-02-09T18:13:47.645Z,9.30
2019-02-09T18:16:17.866Z,9.30
2019-02-09T18:18:47.869Z,9.30
2019-02-09T18:21:17.850Z,9.20
2019-02-09T18:23:48.014Z,9.20
2019-02-09T18:26:18.371Z,9.20
2019-02-09T18:28:48.698Z,9.20
2019-02-09T18:31:18.825Z,9.20
2019-02-09T18:33:49.896Z,9.10
2019-02-09T18:36:19.955Z,9.10
2019-02-09T18:38:50.662Z,9.10
2019-02-09T18:41:21.102Z,9.00
2019-02-09T18:43:51.145Z,9.00
2019-02-09T18:46:21.190Z,9.00
2019-02-09T18:49:01.223Z,9.00
2019-02-09T18:51:31.290Z,9.10
2019-02-09T18:54:01.328Z,9.10
2019-02-09T18:56:31.439Z,9.10
2019-02-09T18:59:02.586Z,9.10
2019-02-09T19:01:38.266Z,9.10
2019-02-09T19:04:08.371Z,9.10
2019-02-09T19:06:38.544Z,9.10
2019-02-09T19:09:10.054Z,9.00
2019-02-09T19:11:40.251Z,9.00
2019-02-09T19:14:10.164Z,9.00
2019-02-09T19:16:40.070Z,9.00
2019-02-09T19:19:10.081Z,8.90
2019-02-09T19:21:40.113Z,8.90
2019-02-09T19:24:17.325Z,8.90
2019-02-09T19:26:51.867Z,8.90
2019-02-09T19:29:24.563Z,8.90
2019-02-09T19:32:02.267Z,8.90
2019-02-09T19:34:33.175Z,8.90
2019-02-09T19:37:04.278Z,8.90
2019-02-09T19:39:36.369Z,8.90
2019-02-09T19:42:07.935Z,8.90
2019-02-09T19:44:38.035Z,9.00
2019-02-09T19:47:09.477Z,9.00
2019-02-09T19:49:49.066Z,9.00
2019-02-09T19:52:34.970Z,9.00
2019-02-09T19:55:09.563Z,9.00
2019-02-09T19:57:39.588Z,9.00
2019-02-09T20:00:14.024Z,9.00
2019-02-09T20:02:43.990Z,9.00
2019-02-09T20:05:19.725Z,9.00
2019-02-09T20:07:45.768Z,9.10
2019-02-09T20:10:17.646Z,9.10
2019-02-09T20:12:47.712Z,9.10
2019-02-09T20:15:17.975Z,9.10
2019-02-09T20:17:48.397Z,9.20
2019-02-09T20:20:18.353Z,9.20
2019-02-09T20:22:48.595Z,9.10
2019-02-09T20:25:19.898Z,9.10
2019-02-09T20:27:50.227Z,9.10
2019-02-09T20:30:26.003Z,9.00
2019-02-09T20:32:56.056Z,8.90
2019-02-09T20:35:27.722Z,8.90
2019-02-09T20:38:01.213Z,8.90
2019-02-09T20:40:53.101Z,8.80
2019-02-09T20:43:23.234Z,8.70
2019-02-09T20:45:53.294Z,8.70
2019-02-09T20:48:23.391Z,8.70
2019-02-09T20:50:53.747Z,8.60
2019-02-09T20:53:23.819Z,8.60
2019-02-09T20:55:55.058Z,8.60
2019-02-09T20:58:29.749Z,8.60
2019-02-09T21:01:00.877Z,8.60
2019-02-09T21:03:31.180Z,8.60
2019-02-09T21:06:01.556Z,8.60
2019-02-09T21:08:33.709Z,8.60
2019-02-09T21:11:06.385Z,8.60
2019-02-09T21:13:37.570Z,8.60
2019-02-09T21:16:07.942Z,8.60
2019-02-09T21:18:40.396Z,8.60
2019-02-09T21:21:10.726Z,8.60
2019-02-09T21:23:40.835Z,8.60
2019-02-09T21:26:10.990Z,8.60
2019-02-09T21:28:41.052Z,8.60
2019-02-09T21:31:11.172Z,8.60
2019-02-09T21:33:41.346Z,8.60
2019-02-09T21:36:12.674Z,8.60
2019-02-09T21:38:42.900Z,8.60
2019-02-09T21:41:13.309Z,8.60
2019-02-09T21:43:43.231Z,8.60
2019-02-09T21:46:13.092Z,8.60
2019-02-09T21:48:43.475Z,8.60
2019-02-09T21:51:22.095Z,8.60
2019-02-09T21:53:52.257Z,8.50
2019-02-09T21:56:22.431Z,8.60
2019-02-09T21:58:52.716Z,8.60
2019-02-09T22:01:23.069Z,8.60
2019-02-09T22:03:53.220Z,8.60
2019-02-09T22:06:51.565Z,8.60
2019-02-09T22:09:24.907Z,8.60
2019-02-09T22:11:55.537Z,8.60
2019-02-09T22:14:25.778Z,8.60
2019-02-09T22:16:56.068Z,8.60
2019-02-09T22:19:27.300Z,8.60
2019-02-09T22:21:58.701Z,8.60
2019-02-09T22:24:29.088Z,8.70
2019-02-09T22:27:00.311Z,8.70
2019-02-09T22:29:30.379Z,8.70
2019-02-09T22:32:00.427Z,8.80
2019-02-09T22:34:30.308Z,8.80
2019-02-09T22:37:00.737Z,8.80
2019-02-09T22:39:30.771Z,8.80
2019-02-09T22:42:00.988Z,8.80
2019-02-09T22:44:31.170Z,8.80
2019-02-09T22:47:01.372Z,8.90
2019-02-09T22:49:33.345Z,8.90
2019-02-09T22:52:03.086Z,8.90
2019-02-09T22:54:33.230Z,8.80
2019-02-09T22:57:03.327Z,8.90
2019-02-09T22:59:33.399Z,8.90
2019-02-09T23:02:04.005Z,8.90
2019-02-09T23:05:01.911Z,8.90
2019-02-09T23:07:33.797Z,9.00
2019-02-09T23:10:10.728Z,9.00
2019-02-09T23:12:48.406Z,9.00
2019-02-09T23:15:12.920Z,9.00
2019-02-09T23:17:43.124Z,9.00
2019-02-09T23:20:13.143Z,9.00
2019-02-09T23:22:52.402Z,9.00
2019-02-09T23:25:22.517Z,9.00
2019-02-09T23:27:52.623Z,9.00
2019-02-09T23:30:22.505Z,8.90
2019-02-09T23:32:52.321Z,8.90
2019-02-09T23:35:22.202Z,8.80
2019-02-09T23:37:52.075Z,8.90
2019-02-09T23:40:22.166Z,8.90
2019-02-09T23:42:52.098Z,8.80
2019-02-09T23:45:22.078Z,8.80
2019-02-09T23:47:52.337Z,8.80
2019-02-09T23:50:22.673Z,8.80
2019-02-09T23:52:52.955Z,8.80
2019-02-09T23:55:22.913Z,8.80
2019-02-09T23:57:52.859Z,8.80
